Time;durP1;ratioP1;P1;durP2;ratioP2;P2;SDS_P1;SDS_P2;PMS_P1;PMS_P2;Temp;Humidity;BMP_temperature;BMP_pressure;BME280_temperature;BME280_humidity;BME280_pressure;Samples;Min_cycle;Max_cycle;Signal;HPM_P1;HPM_P2
2021/08/13 00:00:17;;;;;;;4.33;1.33;;;14.50;92.30;;;;;;4955305;28;20191;-68
2021/08/13 00:02:44;;;;;;;4.33;1.40;;;14.60;91.90;;;;;;4953801;29;20175;-70
2021/08/13 00:05:13;;;;;;;3.47;1.17;;;14.70;92.00;;;;;;4937921;29;20275;-67
2021/08/13 00:07:40;;;;;;;6.60;1.13;;;14.70;91.00;;;;;;4952800;28;20246;-67
2021/08/13 00:10:08;;;;;;;2.83;1.10;;;14.70;90.80;;;;;;4951416;28;20187;-68
2021/08/13 00:12:35;;;;;;;2.83;1.20;;;14.70;90.70;;;;;;4953833;28;20191;-71
2021/08/13 00:15:05;;;;;;;4.27;1.07;;;14.80;90.80;;;;;;4939074;29;20208;-67
2021/08/13 00:17:33;;;;;;;7.87;1.93;;;14.90;90.30;;;;;;4952080;29;20183;-68
2021/08/13 00:20:00;;;;;;;5.80;1.37;;;15.00;90.30;;;;;;4955567;28;20266;-66
2021/08/13 00:22:27;;;;;;;5.47;1.73;;;15.20;90.10;;;;;;4958377;28;20261;-68
2021/08/13 00:24:55;;;;;;;3.60;1.20;;;15.20;90.10;;;;;;4956780;28;20524;-68
2021/08/13 00:27:22;;;;;;;5.20;1.30;;;15.20;89.80;;;;;;4961040;28;20211;-70
2021/08/13 00:29:49;;;;;;;4.27;1.30;;;15.30;90.00;;;;;;4963419;28;20543;-67
2021/08/13 00:32:17;;;;;;;5.00;1.30;;;15.40;88.80;;;;;;4954864;28;20180;-67
2021/08/13 00:34:44;;;;;;;5.90;1.80;;;15.50;89.80;;;;;;4953132;28;20246;-70
2021/08/13 00:37:12;;;;;;;5.47;1.20;;;15.70;88.50;;;;;;4955412;28;20262;-70
2021/08/13 00:39:39;;;;;;;4.17;1.20;;;15.80;89.10;;;;;;4946729;28;20609;-67
2021/08/13 00:42:06;;;;;;;5.67;1.50;;;15.70;87.90;;;;;;4962844;28;20213;-66
2021/08/13 00:44:33;;;;;;;4.57;1.27;;;15.70;88.00;;;;;;4962235;28;20228;-71
2021/08/13 00:47:01;;;;;;;5.30;1.83;;;15.80;88.10;;;;;;4974692;28;20214;-66
2021/08/13 00:49:28;;;;;;;3.70;1.30;;;15.90;87.10;;;;;;4965911;28;20677;-69
2021/08/13 00:51:55;;;;;;;6.77;1.50;;;16.10;87.30;;;;;;4959675;28;20184;-69
2021/08/13 00:54:23;;;;;;;4.90;1.57;;;16.30;85.90;;;;;;4946833;28;20642;-66
2021/08/13 00:56:51;;;;;;;2.77;1.50;;;16.30;86.30;;;;;;4952605;28;20236;-68
2021/08/13 00:59:19;;;;;;;8.50;1.87;;;16.50;85.60;;;;;;4959348;28;20205;-69
2021/08/13 01:01:47;;;;;;;3.47;1.40;;;16.60;85.50;;;;;;4961081;28;20200;-70
2021/08/13 01:04:14;;;;;;;3.87;1.40;;;16.80;84.80;;;;;;4943799;28;20599;-70
2021/08/13 01:06:41;;;;;;;8.70;1.53;;;16.80;84.50;;;;;;4949385;28;20310;-68
2021/08/13 01:09:12;;;;;;;2.97;1.20;;;17.00;84.80;;;;;;4960195;28;20215;-72
2021/08/13 01:11:51;;;;;;;4.03;1.33;;;17.10;84.30;;;;;;4958736;28;20273;-69
2021/08/13 01:14:31;;;;;;;4.30;1.40;;;17.10;83.00;;;;;;4951463;28;20304;-71
2021/08/13 01:17:00;;;;;;;3.93;1.40;;;17.20;83.80;;;;;;4933594;28;20313;-69
2021/08/13 01:20:03;;;;;;;6.07;1.37;;;17.40;83.00;;;;;;4964469;28;20275;-69
2021/08/13 01:23:13;;;;;;;5.70;1.50;;;17.40;82.40;;;;;;4955180;28;20209;-67
2021/08/13 01:25:43;;;;;;;7.00;1.63;;;17.30;82.20;;;;;;4924287;29;20195;-71
2021/08/13 01:28:23;;;;;;;4.30;1.30;;;17.40;81.70;;;;;;4965312;28;20285;-72
2021/08/13 01:30:51;;;;;;;2.43;1.30;;;17.60;82.20;;;;;;4952678;28;20660;-73
2021/08/13 01:33:20;;;;;;;17.73;2.33;;;17.80;81.00;;;;;;4947612;28;20667;-72
2021/08/13 01:35:51;;;;;;;18.30;2.20;;;17.90;80.80;;;;;;4944488;28;20190;-70
2021/08/13 01:38:27;;;;;;;13.83;2.00;;;17.90;81.30;;;;;;4945187;28;20234;-72
2021/08/13 01:40:59;;;;;;;12.77;1.73;;;18.10;80.40;;;;;;4947533;28;20251;-72
2021/08/13 01:43:28;;;;;;;24.60;2.43;;;18.20;80.30;;;;;;4957721;28;20186;-71
2021/08/13 01:45:58;;;;;;;9.90;1.47;;;18.40;79.90;;;;;;4954805;28;20582;-70
2021/08/13 01:48:29;;;;;;;7.53;1.30;;;18.60;80.00;;;;;;4967495;28;20201;-71
2021/08/13 01:50:57;;;;;;;7.20;1.50;;;18.70;79.80;;;;;;4950938;28;20186;-68
2021/08/13 01:53:25;;;;;;;4.10;1.13;;;18.80;79.10;;;;;;4973878;28;20213;-73
2021/08/13 01:55:54;;;;;;;4.17;1.07;;;18.90;78.30;;;;;;4953687;28;20194;-73
2021/08/13 01:58:24;;;;;;;3.27;1.20;;;19.00;78.30;;;;;;4961131;28;20187;-71
2021/08/13 02:00:53;;;;;;;5.93;1.10;;;19.10;77.40;;;;;;4955511;28;20229;-70
2021/08/13 02:03:21;;;;;;;5.43;1.20;;;18.90;77.50;;;;;;4957856;28;20190;-71
2021/08/13 02:05:49;;;;;;;4.17;1.10;;;19.00;77.60;;;;;;4964341;28;20178;-69
2021/08/13 02:08:17;;;;;;;5.10;1.60;;;19.30;77.40;;;;;;4945833;28;20234;-69
2021/08/13 02:10:48;;;;;;;4.27;1.20;;;19.50;75.50;;;;;;4953582;28;20556;-73
2021/08/13 02:13:15;;;;;;;8.33;1.43;;;19.30;77.10;;;;;;4963804;28;20186;-71
2021/08/13 02:15:49;;;;;;;4.10;1.10;;;19.50;76.60;;;;;;4972786;28;20206;-69
2021/08/13 02:18:25;;;;;;;4.67;1.23;;;19.70;76.00;;;;;;4957182;28;20599;-69
2021/08/13 02:20:56;;;;;;;2.93;1.30;;;19.70;75.30;;;;;;4973627;28;20183;-70
2021/08/13 02:23:24;;;;;;;3.83;1.17;;;19.90;75.30;;;;;;4961282;28;20196;-71
2021/08/13 02:25:51;;;;;;;7.93;1.60;;;20.10;74.50;;;;;;4951308;28;20302;-67
2021/08/13 02:28:19;;;;;;;3.90;1.07;;;19.80;74.60;;;;;;4943959;28;20187;-68
2021/08/13 02:30:46;;;;;;;6.90;1.30;;;19.90;75.00;;;;;;4945402;28;20302;-68
2021/08/13 02:33:13;;;;;;;5.80;1.47;;;20.00;74.60;;;;;;4947457;28;20194;-69
2021/08/13 02:35:46;;;;;;;5.80;1.30;;;20.50;74.80;;;;;;4942348;28;20239;-67
2021/08/13 02:38:23;;;;;;;3.33;1.00;;;20.70;73.20;;;;;;4955541;28;20238;-70
2021/08/13 02:40:53;;;;;;;3.93;0.80;;;20.60;72.60;;;;;;4950739;28;20190;-72
2021/08/13 02:43:48;;;;;;;5.50;1.70;;;20.70;73.20;;;;;;4955623;28;20227;-72
2021/08/13 02:46:18;;;;;;;2.77;1.03;;;20.50;73.70;;;;;;4948076;28;20294;-68
2021/08/13 02:48:47;;;;;;;4.90;1.20;;;20.80;72.80;;;;;;4956557;28;20307;-71
2021/08/13 02:51:17;;;;;;;3.13;1.00;;;21.00;72.70;;;;;;4948810;28;20290;-71
2021/08/13 02:53:48;;;;;;;8.50;1.20;;;21.20;71.60;;;;;;4950978;28;20245;-66
2021/08/13 02:56:18;;;;;;;8.63;1.40;;;21.10;71.80;;;;;;4948280;28;20554;-66
2021/08/13 02:59:04;;;;;;;3.80;1.20;;;21.10;71.00;;;;;;4950616;28;20179;-68
2021/08/13 03:01:34;;;;;;;5.67;1.63;;;20.80;71.70;;;;;;4958688;28;20323;-67
2021/08/13 03:04:05;;;;;;;7.00;1.60;;;20.80;71.40;;;;;;4953860;28;20539;-67
2021/08/13 03:06:36;;;;;;;9.40;1.50;;;21.20;71.50;;;;;;4949809;28;20294;-70
2021/08/13 03:09:05;;;;;;;10.73;1.57;;;21.10;71.30;;;;;;4948157;28;20184;-72
2021/08/13 03:11:34;;;;;;;4.63;0.97;;;21.70;71.20;;;;;;4946001;28;20681;-74
2021/08/13 03:14:03;;;;;;;4.03;1.00;;;21.80;70.80;;;;;;4949004;28;20693;-72
2021/08/13 03:16:34;;;;;;;4.33;1.10;;;22.00;70.70;;;;;;4944115;28;20183;-73
2021/08/13 03:19:03;;;;;;;3.30;1.07;;;21.50;71.30;;;;;;4959633;28;20199;-69
2021/08/13 03:21:32;;;;;;;3.10;1.17;;;21.10;71.90;;;;;;4948404;28;20657;-72
2021/08/13 03:24:00;;;;;;;3.03;1.10;;;21.10;71.70;;;;;;4949869;28;20187;-72
2021/08/13 03:26:28;;;;;;;4.90;1.20;;;21.40;71.60;;;;;;4927627;29;20702;-71
2021/08/13 03:28:56;;;;;;;7.03;1.60;;;21.50;71.80;;;;;;4955934;28;20198;-73
2021/08/13 03:31:36;;;;;;;24.43;2.30;;;21.90;71.20;;;;;;4953942;28;20175;-70
2021/08/13 03:34:05;;;;;;;2.83;1.07;;;21.80;70.80;;;;;;4951543;28;20187;-71
2021/08/13 03:36:34;;;;;;;5.27;1.07;;;22.20;69.80;;;;;;4947426;28;20188;-71
2021/08/13 03:39:01;;;;;;;7.77;1.07;;;22.40;70.40;;;;;;4952084;28;20298;-70
2021/08/13 03:41:29;;;;;;;2.83;1.03;;;22.50;69.30;;;;;;4951251;28;20187;-73
2021/08/13 03:43:56;;;;;;;5.13;1.00;;;22.50;70.00;;;;;;4956224;28;20273;-69
2021/08/13 03:46:23;;;;;;;8.10;1.07;;;22.70;69.40;;;;;;4951128;28;20211;-72
2021/08/13 03:48:51;;;;;;;3.67;1.03;;;22.60;70.00;;;;;;4953808;28;20274;-70
2021/08/13 03:51:18;;;;;;;7.70;1.17;;;22.80;69.00;;;;;;4951946;28;20187;-71
2021/08/13 03:53:46;;;;;;;2.80;0.87;;;23.20;68.90;;;;;;4947679;28;20183;-70
2021/08/13 03:56:13;;;;;;;4.50;1.23;;;23.50;67.70;;;;;;4950070;28;20206;-71
2021/08/13 03:58:44;;;;;;;4.83;1.17;;;23.20;68.10;;;;;;4947222;28;20270;-71
2021/08/13 04:01:11;;;;;;;8.00;1.10;;;23.10;68.60;;;;;;4947217;28;20848;-69
2021/08/13 04:03:38;;;;;;;4.80;1.17;;;23.80;67.30;;;;;;4947207;28;20238;-73
2021/08/13 04:06:06;;;;;;;3.67;1.20;;;23.90;65.30;;;;;;4950626;28;20661;-73
2021/08/13 04:08:33;;;;;;;4.30;1.10;;;24.20;65.40;;;;;;4944851;28;20198;-68
2021/08/13 04:11:01;;;;;;;5.17;1.00;;;24.10;64.10;;;;;;4951698;28;20741;-70
2021/08/13 04:13:28;;;;;;;8.20;2.07;;;24.00;63.80;;;;;;4949121;28;20195;-70
2021/08/13 04:15:55;;;;;;;5.60;1.00;;;23.40;64.20;;;;;;4954545;28;20184;-73
2021/08/13 04:18:23;;;;;;;4.93;1.50;;;23.70;64.90;;;;;;4945530;28;20250;-73
2021/08/13 04:20:50;;;;;;;4.00;1.10;;;23.60;65.00;;;;;;4949849;28;20183;-71
2021/08/13 04:23:17;;;;;;;3.83;1.27;;;23.60;64.30;;;;;;4951048;28;20231;-70
2021/08/13 04:25:45;;;;;;;5.10;1.27;;;23.70;64.40;;;;;;4946497;28;20184;-71
2021/08/13 04:28:12;;;;;;;3.90;1.27;;;23.40;64.60;;;;;;4953304;28;20255;-73
2021/08/13 04:30:40;;;;;;;7.23;1.57;;;23.90;63.70;;;;;;4948719;28;20176;-71
2021/08/13 04:33:09;;;;;;;3.50;1.27;;;24.30;63.30;;;;;;4944993;28;20196;-70
2021/08/13 04:35:36;;;;;;;4.47;1.13;;;24.00;63.20;;;;;;4951811;28;20191;-71
2021/08/13 04:38:05;;;;;;;6.63;1.20;;;23.60;62.40;;;;;;4946955;28;20231;-73
2021/08/13 04:40:33;;;;;;;3.60;1.30;;;24.00;63.10;;;;;;4949827;28;20188;-69
2021/08/13 04:43:01;;;;;;;3.00;1.00;;;24.30;62.90;;;;;;4946867;28;20191;-71
2021/08/13 04:45:28;;;;;;;3.13;1.23;;;23.80;62.60;;;;;;4947374;28;20184;-72
2021/08/13 04:47:56;;;;;;;3.03;1.03;;;24.40;62.70;;;;;;4948632;28;20342;-71
2021/08/13 04:50:23;;;;;;;8.17;1.10;;;24.30;61.90;;;;;;4948829;28;20177;-71
2021/08/13 04:52:52;;;;;;;4.00;1.27;;;24.20;61.70;;;;;;4947668;28;20218;-73
2021/08/13 04:55:26;;;;;;;5.60;1.10;;;23.70;62.30;;;;;;4947801;28;20187;-73
2021/08/13 04:57:54;;;;;;;5.93;1.20;;;23.60;62.40;;;;;;4947224;28;20193;-74
2021/08/13 05:00:30;;;;;;;4.77;1.10;;;23.50;62.70;;;;;;4952056;28;20713;-71
2021/08/13 05:02:57;;;;;;;2.43;0.93;;;23.80;62.70;;;;;;4948413;28;20205;-71
2021/08/13 05:05:26;;;;;;;3.07;1.00;;;24.60;60.40;;;;;;4946142;28;20194;-71
2021/08/13 05:07:53;;;;;;;2.93;1.23;;;25.00;59.60;;;;;;4951263;28;20302;-71
2021/08/13 05:10:20;;;;;;;3.00;0.90;;;25.60;59.20;;;;;;4948611;28;20186;-72
2021/08/13 05:12:48;;;;;;;3.10;0.90;;;25.80;56.40;;;;;;4947259;28;20262;-70
2021/08/13 05:15:15;;;;;;;2.27;1.10;;;25.50;56.30;;;;;;4944497;28;20186;-71
2021/08/13 05:17:43;;;;;;;5.63;1.30;;;25.20;56.30;;;;;;4950160;28;20187;-69
2021/08/13 05:20:11;;;;;;;3.40;1.17;;;25.10;56.20;;;;;;4952622;28;20183;-70
2021/08/13 05:22:39;;;;;;;2.97;1.33;;;25.00;55.70;;;;;;4947563;28;20628;-72
2021/08/13 05:25:09;;;;;;;8.83;1.27;;;25.30;55.10;;;;;;4950231;28;20180;-71
2021/08/13 05:27:37;;;;;;;2.83;1.03;;;25.10;53.70;;;;;;4951624;28;20250;-70
2021/08/13 05:30:06;;;;;;;2.80;0.93;;;24.90;53.70;;;;;;4949123;28;20218;-69
2021/08/13 05:32:33;;;;;;;3.80;1.00;;;24.80;53.60;;;;;;4949043;28;20255;-70
2021/08/13 05:35:24;;;;;;;4.10;0.73;;;25.00;52.60;;;;;;4948350;28;20553;-80
2021/08/13 05:38:39;;;;;;;4.43;1.13;;;25.40;51.80;;;;;;4922172;28;20250;-81
2021/08/13 05:41:15;;;;;;;4.97;1.53;;;25.50;51.50;;;;;;4939534;29;20199;-77
2021/08/13 05:48:09;;;;;;;;;;;;;;;;;;;;;
2021/08/13 05:51:40;;;;;;;3.43;0.80;;;25.20;51.50;;;;;;4949763;28;20194;-79
2021/08/13 05:54:07;;;;;;;2.23;0.80;;;25.40;51.20;;;;;;4936724;28;20203;-68
2021/08/13 05:56:34;;;;;;;2.63;1.03;;;25.40;50.80;;;;;;4951241;28;20562;-71
2021/08/13 05:59:02;;;;;;;1.87;0.80;;;25.20;50.90;;;;;;4951196;28;20183;-68
2021/08/13 06:01:29;;;;;;;2.13;0.90;;;25.20;51.00;;;;;;4946510;28;20270;-71
2021/08/13 06:03:57;;;;;;;3.57;1.00;;;25.10;51.00;;;;;;4947606;28;20569;-68
2021/08/13 06:06:26;;;;;;;4.77;1.97;;;24.70;51.40;;;;;;4941820;28;20219;-68
2021/08/13 06:08:53;;;;;;;3.27;0.97;;;24.50;51.60;;;;;;4958308;28;20193;-73
2021/08/13 06:11:21;;;;;;;3.20;0.80;;;24.70;52.20;;;;;;4955819;28;20182;-73
2021/08/13 06:13:48;;;;;;;4.10;0.97;;;24.80;52.40;;;;;;4953563;28;20187;-74
2021/08/13 06:16:19;;;;;;;3.87;0.97;;;24.70;53.60;;;;;;4955872;28;20194;-74
2021/08/13 06:18:47;;;;;;;2.27;0.60;;;24.10;54.30;;;;;;4952477;28;20195;-71
2021/08/13 06:21:14;;;;;;;7.50;0.97;;;23.70;55.00;;;;;;4952788;28;21256;-73
2021/08/13 06:23:42;;;;;;;6.27;0.90;;;23.30;55.60;;;;;;4957301;28;20214;-71
2021/08/13 06:26:12;;;;;;;4.20;1.20;;;22.80;56.70;;;;;;4950999;28;20188;-72
2021/08/13 06:28:40;;;;;;;2.20;0.70;;;22.20;57.40;;;;;;4955297;28;20196;-71
2021/08/13 06:31:07;;;;;;;2.90;0.93;;;21.70;58.40;;;;;;4952249;28;20274;-70
2021/08/13 06:33:34;;;;;;;4.70;1.20;;;21.50;58.60;;;;;;4951673;28;20176;-72
2021/08/13 06:36:02;;;;;;;3.97;0.90;;;21.20;58.70;;;;;;4955283;28;20227;-69
2021/08/13 06:38:30;;;;;;;3.40;0.70;;;21.00;59.40;;;;;;4950171;28;20262;-72
2021/08/13 06:40:58;;;;;;;5.87;1.03;;;20.80;60.40;;;;;;4958725;28;20727;-72
2021/08/13 06:43:25;;;;;;;4.57;1.20;;;20.60;61.20;;;;;;4953554;28;20183;-71
2021/08/13 06:45:52;;;;;;;2.87;1.00;;;20.40;61.80;;;;;;4952340;28;20220;-71
2021/08/13 06:48:20;;;;;;;5.20;1.00;;;20.20;62.20;;;;;;4951202;28;20629;-71
2021/08/13 06:50:47;;;;;;;6.73;1.13;;;20.10;62.30;;;;;;4936078;29;20206;-68
2021/08/13 06:53:15;;;;;;;3.63;1.10;;;20.10;62.30;;;;;;4960407;28;20724;-68
2021/08/13 06:55:42;;;;;;;4.53;0.80;;;19.90;62.40;;;;;;4957390;28;20218;-69
2021/08/13 06:58:09;;;;;;;3.27;1.00;;;19.90;62.80;;;;;;4959710;28;20187;-69
2021/08/13 07:00:37;;;;;;;3.50;1.13;;;19.90;63.20;;;;;;4953568;28;20235;-70
2021/08/13 07:03:04;;;;;;;3.77;1.30;;;19.70;63.60;;;;;;4957850;28;20182;-69
2021/08/13 07:05:31;;;;;;;3.30;1.33;;;19.60;63.40;;;;;;4952006;28;20195;-70
2021/08/13 07:08:06;;;;;;;11.00;2.57;;;19.40;69.90;;;;;;4950031;28;20224;-70
2021/08/13 07:10:33;;;;;;;6.10;2.00;;;19.10;75.50;;;;;;4958125;28;20222;-70
2021/08/13 07:13:00;;;;;;;7.00;1.80;;;18.80;79.20;;;;;;4956224;28;20538;-70
2021/08/13 07:15:28;;;;;;;8.00;1.90;;;18.60;81.70;;;;;;4962130;28;20184;-69
2021/08/13 07:17:55;;;;;;;6.17;1.60;;;18.20;83.50;;;;;;4951466;28;20233;-70
2021/08/13 07:20:24;;;;;;;5.90;1.90;;;18.10;84.90;;;;;;4950393;28;20187;-69
2021/08/13 07:22:52;;;;;;;8.63;1.97;;;17.90;86.40;;;;;;4954228;28;20178;-70
2021/08/13 07:25:20;;;;;;;8.67;2.43;;;17.90;87.50;;;;;;4954464;28;20653;-69
2021/08/13 07:27:47;;;;;;;5.73;2.50;;;17.90;88.50;;;;;;4956210;28;20215;-69
2021/08/13 07:30:15;;;;;;;7.23;1.90;;;17.70;89.50;;;;;;4946924;28;20517;-69
2021/08/13 07:32:45;;;;;;;5.83;2.00;;;17.70;90.00;;;;;;4950462;28;20185;-70
2021/08/13 07:35:14;;;;;;;7.90;2.70;;;17.60;90.30;;;;;;4954243;28;20637;-70
2021/08/13 07:37:41;;;;;;;4.63;1.87;;;17.50;90.70;;;;;;4954973;28;20222;-70
2021/08/13 07:40:09;;;;;;;6.97;2.73;;;17.40;91.30;;;;;;4956269;28;20187;-70
2021/08/13 07:42:37;;;;;;;9.40;2.37;;;17.30;91.80;;;;;;4957263;28;20187;-70
2021/08/13 07:45:06;;;;;;;5.60;1.80;;;17.20;92.20;;;;;;4961411;28;20193;-71
2021/08/13 07:47:33;;;;;;;5.40;1.90;;;17.20;92.70;;;;;;4957620;28;20229;-70
2021/08/13 07:50:01;;;;;;;6.70;1.90;;;17.10;93.00;;;;;;4976081;28;20203;-72
2021/08/13 07:52:28;;;;;;;7.30;1.93;;;17.10;93.40;;;;;;4953575;28;20186;-72
2021/08/13 07:54:56;;;;;;;7.40;1.70;;;17.00;93.80;;;;;;4958637;28;20236;-70
2021/08/13 07:57:23;;;;;;;8.97;2.00;;;17.00;94.10;;;;;;4975623;28;20184;-69
2021/08/13 07:59:50;;;;;;;6.47;1.57;;;16.90;94.30;;;;;;4958437;28;20592;-69
2021/08/13 08:02:18;;;;;;;7.27;1.70;;;16.90;94.60;;;;;;4967745;28;20301;-70
2021/08/13 08:04:45;;;;;;;8.03;1.93;;;16.80;94.90;;;;;;4969801;28;20186;-70
2021/08/13 08:07:14;;;;;;;6.33;1.83;;;16.80;95.00;;;;;;4967241;28;20245;-70
2021/08/13 08:09:42;;;;;;;12.83;2.53;;;16.70;95.20;;;;;;4955508;28;20178;-70
2021/08/13 08:12:10;;;;;;;10.27;1.97;;;16.70;95.60;;;;;;4936793;28;20194;-71
2021/08/13 08:14:37;;;;;;;3.00;2.10;;;16.60;95.80;;;;;;4974774;28;20727;-69
2021/08/13 08:17:05;;;;;;;3.93;1.70;;;16.50;96.30;;;;;;4974738;28;20689;-72
2021/08/13 08:19:32;;;;;;;7.10;1.90;;;16.40;96.70;;;;;;4958580;28;20582;-68
2021/08/13 08:22:00;;;;;;;3.30;1.70;;;16.40;97.10;;;;;;4955880;29;20177;-70
2021/08/13 08:24:27;;;;;;;5.80;1.83;;;16.40;97.20;;;;;;4961802;28;20205;-68
2021/08/13 08:26:55;;;;;;;4.47;2.13;;;16.30;97.60;;;;;;4958689;28;20709;-69
2021/08/13 08:29:23;;;;;;;5.30;2.07;;;16.30;98.00;;;;;;4974711;28;20261;-69
2021/08/13 08:31:50;;;;;;;9.20;2.03;;;16.30;98.40;;;;;;4973753;28;20719;-71
2021/08/13 08:34:18;;;;;;;6.60;2.37;;;16.20;98.60;;;;;;4975188;28;20201;-70
2021/08/13 08:36:45;;;;;;;8.33;2.67;;;16.20;98.90;;;;;;4968759;28;20187;-70
2021/08/13 08:39:12;;;;;;;7.37;2.30;;;16.10;99.20;;;;;;4954092;28;20274;-70
2021/08/13 08:41:40;;;;;;;5.17;2.43;;;16.10;99.40;;;;;;4952737;28;20196;-71
2021/08/13 08:44:07;;;;;;;7.30;2.27;;;16.20;99.40;;;;;;4956479;28;20586;-69
2021/08/13 08:46:37;;;;;;;5.10;2.37;;;16.10;99.60;;;;;;4971737;28;20232;-69
2021/08/13 08:49:05;;;;;;;6.27;2.67;;;16.00;99.90;;;;;;4953937;28;20271;-71
2021/08/13 08:51:33;;;;;;;4.33;2.23;;;15.90;99.90;;;;;;4960079;28;20214;-69
2021/08/13 08:54:01;;;;;;;11.07;3.30;;;15.80;99.90;;;;;;4974892;28;20714;-71
2021/08/13 08:56:28;;;;;;;7.40;3.57;;;15.80;99.90;;;;;;4971865;28;20178;-70
2021/08/13 08:58:56;;;;;;;8.07;3.60;;;15.70;99.90;;;;;;4974542;28;20323;-72
2021/08/13 09:01:27;;;;;;;11.30;4.67;;;15.60;99.90;;;;;;4974820;28;20649;-71
2021/08/13 09:03:55;;;;;;;12.47;5.13;;;15.50;99.90;;;;;;4946038;28;20219;-71
2021/08/13 09:06:22;;;;;;;11.67;5.10;;;15.50;99.90;;;;;;4952490;28;20183;-70
2021/08/13 09:08:51;;;;;;;11.20;4.70;;;15.50;99.90;;;;;;4950690;28;20187;-69
2021/08/13 09:11:19;;;;;;;12.93;4.80;;;15.40;99.90;;;;;;4955777;28;20179;-70
2021/08/13 09:14:02;;;;;;;13.03;4.87;;;15.40;99.90;;;;;;4960015;28;20194;-69
2021/08/13 09:16:30;;;;;;;12.40;6.10;;;15.40;99.90;;;;;;4953407;28;20262;-69
2021/08/13 09:18:59;;;;;;;9.83;5.40;;;15.30;99.90;;;;;;4955501;28;20204;-69
2021/08/13 09:21:28;;;;;;;14.70;5.17;;;15.30;99.90;;;;;;4950514;28;20658;-70
2021/08/13 09:23:59;;;;;;;9.87;5.87;;;15.20;99.90;;;;;;4961194;28;20187;-71
2021/08/13 09:26:28;;;;;;;10.77;6.30;;;15.20;99.90;;;;;;4947041;28;20672;-72
2021/08/13 09:29:03;;;;;;;16.00;6.20;;;15.20;99.90;;;;;;4940570;28;20196;-71
2021/08/13 09:31:35;;;;;;;12.10;6.37;;;15.10;99.90;;;;;;4946596;28;20689;-69
2021/08/13 09:34:15;;;;;;;14.53;6.60;;;15.00;99.90;;;;;;4938085;29;20188;-69
2021/08/13 09:36:52;;;;;;;13.30;6.33;;;15.00;99.90;;;;;;4947331;28;20191;-69
2021/08/13 09:39:31;;;;;;;18.13;6.87;;;14.90;99.90;;;;;;4940124;29;20223;-69
2021/08/13 09:42:01;;;;;;;15.37;7.10;;;14.90;99.90;;;;;;4951007;28;20194;-70
2021/08/13 09:44:31;;;;;;;18.03;6.70;;;14.90;99.90;;;;;;4945148;28;20187;-70
2021/08/13 09:47:03;;;;;;;19.87;6.83;;;14.90;99.90;;;;;;4956282;28;20229;-69
2021/08/13 09:49:33;;;;;;;18.47;7.50;;;14.90;99.90;;;;;;4954501;29;20195;-69
2021/08/13 09:52:17;;;;;;;11.60;6.73;;;14.90;99.90;;;;;;4954442;29;20179;-69
2021/08/13 09:54:45;;;;;;;16.03;7.20;;;14.90;99.90;;;;;;4952690;29;20194;-71
2021/08/13 09:57:16;;;;;;;17.03;7.17;;;14.90;99.90;;;;;;4964090;28;20285;-69
2021/08/13 10:00:00;;;;;;;17.87;7.63;;;14.80;99.90;;;;;;4962539;28;20186;-72
2021/08/13 10:02:32;;;;;;;16.07;8.13;;;14.70;99.90;;;;;;4961241;28;20189;-72
2021/08/13 10:04:59;;;;;;;16.00;8.53;;;14.60;99.90;;;;;;4973594;28;20269;-69
2021/08/13 10:07:44;;;;;;;16.03;8.10;;;14.50;99.90;;;;;;4959028;28;20239;-71
2021/08/13 10:10:11;;;;;;;16.60;8.13;;;14.50;99.90;;;;;;4945889;29;20313;-71
2021/08/13 10:12:46;;;;;;;15.37;7.77;;;14.50;99.90;;;;;;4951846;28;20187;-71
2021/08/13 10:15:28;;;;;;;15.43;8.17;;;14.30;99.90;;;;;;4952977;28;20179;-71
2021/08/13 10:18:00;;;;;;;17.80;7.73;;;14.40;99.90;;;;;;4948677;29;20187;-71
2021/08/13 10:20:33;;;;;;;18.17;8.90;;;14.40;99.90;;;;;;4944259;29;20233;-72
2021/08/13 10:23:01;;;;;;;25.57;10.43;;;14.30;99.90;;;;;;4952261;29;20183;-70
2021/08/13 10:25:29;;;;;;;20.20;12.70;;;14.20;99.90;;;;;;4953378;28;20183;-69
2021/08/13 10:27:56;;;;;;;26.17;13.63;;;14.10;99.90;;;;;;4954134;28;20211;-72
2021/08/13 10:30:25;;;;;;;24.97;11.87;;;14.10;99.90;;;;;;4954050;28;20629;-69
2021/08/13 10:32:56;;;;;;;21.13;10.50;;;14.00;99.90;;;;;;4947446;29;20176;-69
2021/08/13 10:35:29;;;;;;;13.60;7.87;;;14.00;99.90;;;;;;4958264;28;20529;-71
2021/08/13 10:38:00;;;;;;;19.50;9.47;;;14.00;99.90;;;;;;4949489;29;20219;-69
2021/08/13 10:40:28;;;;;;;23.00;12.83;;;14.00;99.90;;;;;;4945097;29;20183;-70
2021/08/13 10:42:55;;;;;;;24.20;11.67;;;13.90;99.90;;;;;;4953017;28;20539;-69
2021/08/13 10:45:26;;;;;;;14.60;8.77;;;13.90;99.90;;;;;;4945785;29;20180;-69
2021/08/13 10:47:58;;;;;;;17.10;8.50;;;13.80;99.90;;;;;;4950815;29;20685;-72
2021/08/13 10:50:25;;;;;;;11.70;7.73;;;13.80;99.90;;;;;;4949784;29;20180;-73
2021/08/13 10:52:53;;;;;;;15.07;9.03;;;13.80;99.90;;;;;;4947913;28;20660;-72
2021/08/13 10:55:42;;;;;;;13.63;8.03;;;13.80;99.90;;;;;;4951645;28;20304;-73
2021/08/13 10:58:11;;;;;;;22.10;8.30;;;13.80;99.90;;;;;;4951394;29;20665;-72
2021/08/13 11:01:06;;;;;;;27.97;12.30;;;13.70;99.90;;;;;;4950243;28;20188;-72
2021/08/13 11:03:35;;;;;;;23.57;11.37;;;13.60;99.90;;;;;;4957602;28;20182;-72
2021/08/13 11:06:04;;;;;;;20.10;10.23;;;13.60;99.90;;;;;;4966467;28;20621;-70
2021/08/13 11:08:40;;;;;;;16.07;9.37;;;13.60;99.90;;;;;;4952694;29;20222;-73
2021/08/13 11:11:13;;;;;;;17.43;7.20;;;13.50;99.90;;;;;;4949213;28;20183;-69
2021/08/13 11:13:47;;;;;;;14.70;7.50;;;13.50;99.90;;;;;;4953051;29;20246;-71
2021/08/13 11:16:31;;;;;;;12.43;6.67;;;13.50;99.90;;;;;;4955213;28;20510;-72
2021/08/13 11:19:09;;;;;;;14.03;6.30;;;13.60;99.90;;;;;;4956356;29;20291;-72
2021/08/13 11:21:36;;;;;;;16.70;6.60;;;13.60;99.90;;;;;;4953657;29;20532;-72
2021/08/13 11:24:06;;;;;;;11.90;6.50;;;13.50;99.90;;;;;;4944915;28;20188;-70
2021/08/13 11:26:48;;;;;;;17.00;6.00;;;13.50;99.90;;;;;;4955936;29;20219;-71
2021/08/13 11:29:34;;;;;;;10.27;5.57;;;13.40;99.90;;;;;;4955966;29;20191;-72
2021/08/13 11:32:08;;;;;;;12.13;5.37;;;13.40;99.90;;;;;;4956706;29;20246;-73
2021/08/13 11:35:05;;;;;;;14.77;6.30;;;13.40;99.90;;;;;;4954811;29;20184;-72
2021/08/13 11:37:38;;;;;;;22.63;11.97;;;13.30;99.90;;;;;;4955438;28;20676;-71
2021/08/13 11:40:27;;;;;;;20.67;13.13;;;13.30;99.90;;;;;;4959842;28;20237;-70
2021/08/13 11:43:01;;;;;;;15.97;8.63;;;13.20;99.90;;;;;;4948081;28;20241;-72
2021/08/13 11:45:41;;;;;;;15.93;6.90;;;13.20;99.90;;;;;;4968386;28;20187;-72
2021/08/13 11:48:10;;;;;;;13.17;6.97;;;13.10;99.90;;;;;;4968631;28;20246;-70
2021/08/13 11:50:38;;;;;;;11.60;6.10;;;13.10;99.90;;;;;;4968510;28;20634;-70
2021/08/13 11:53:06;;;;;;;10.90;6.03;;;13.10;99.90;;;;;;4959864;28;20201;-72
2021/08/13 11:55:35;;;;;;;16.83;5.90;;;13.00;99.90;;;;;;4975251;28;20633;-71
2021/08/13 11:58:06;;;;;;;13.80;5.60;;;13.00;99.90;;;;;;4971864;28;20195;-72
2021/08/13 12:00:38;;;;;;;12.70;6.53;;;13.00;99.90;;;;;;4956195;28;20590;-70
2021/08/13 12:03:10;;;;;;;15.57;5.73;;;13.00;99.90;;;;;;4956358;28;20528;-72
2021/08/13 12:05:40;;;;;;;11.67;5.60;;;13.00;99.90;;;;;;4961068;28;20205;-71
2021/08/13 12:08:12;;;;;;;15.50;6.07;;;13.00;99.90;;;;;;4967337;28;20290;-72
2021/08/13 12:10:49;;;;;;;12.03;5.40;;;13.00;99.90;;;;;;4953213;28;20716;-71
2021/08/13 12:13:16;;;;;;;14.77;5.27;;;12.90;99.90;;;;;;4953143;28;20179;-72
2021/08/13 12:15:44;;;;;;;14.17;4.93;;;13.00;99.90;;;;;;4941894;29;20187;-72
2021/08/13 12:18:12;;;;;;;12.33;4.70;;;12.90;99.90;;;;;;4950763;29;20178;-72
2021/08/13 12:20:49;;;;;;;12.67;4.77;;;13.00;99.90;;;;;;4955200;29;20187;-72
2021/08/13 12:23:18;;;;;;;11.13;4.67;;;12.90;99.90;;;;;;4953468;28;20227;-72
2021/08/13 12:25:46;;;;;;;13.60;5.27;;;12.80;99.90;;;;;;4955301;29;20188;-72
2021/08/13 12:28:17;;;;;;;11.77;4.60;;;12.70;99.90;;;;;;4955711;29;20215;-70
2021/08/13 12:30:45;;;;;;;9.07;4.67;;;12.70;99.90;;;;;;4955330;29;20235;-70
2021/08/13 12:33:20;;;;;;;11.07;4.93;;;12.70;99.90;;;;;;4945792;28;20592;-71
2021/08/13 12:35:48;;;;;;;12.50;5.03;;;12.60;99.90;;;;;;4951829;28;20230;-71
2021/08/13 12:38:16;;;;;;;12.17;4.80;;;12.60;99.90;;;;;;4955519;29;20278;-72
2021/08/13 12:40:51;;;;;;;11.10;4.70;;;12.60;99.90;;;;;;4946037;28;20210;-68
2021/08/13 12:43:19;;;;;;;9.40;4.23;;;12.60;99.90;;;;;;4959216;28;20209;-72
2021/08/13 12:45:49;;;;;;;11.60;3.80;;;12.60;99.90;;;;;;4955305;28;20230;-69
2021/08/13 12:48:19;;;;;;;9.10;3.90;;;12.60;99.90;;;;;;4955703;28;20654;-70
2021/08/13 12:50:53;;;;;;;8.80;3.40;;;12.50;99.90;;;;;;4955335;28;20234;-69
2021/08/13 12:53:36;;;;;;;11.50;3.70;;;12.50;99.90;;;;;;4951408;29;20645;-69
2021/08/13 12:56:16;;;;;;;6.90;3.17;;;12.40;99.90;;;;;;4950118;28;20657;-72
2021/08/13 12:58:43;;;;;;;10.23;3.77;;;12.40;99.90;;;;;;4955108;28;20226;-72
2021/08/13 13:01:31;;;;;;;7.80;3.47;;;12.30;99.90;;;;;;4955291;28;20186;-72
2021/08/13 13:04:13;;;;;;;7.13;2.87;;;12.30;99.90;;;;;;4955134;28;20193;-70
2021/08/13 13:06:43;;;;;;;9.50;4.10;;;12.30;99.90;;;;;;4954475;29;20207;-72